createdAt,value
2018-05-01T00:02:16.391Z,76.90
2018-05-01T00:04:42.776Z,76.90
2018-05-01T00:07:09.339Z,77.80
2018-05-01T00:09:35.742Z,77.90
2018-05-01T00:12:02.140Z,78.40
2018-05-01T00:14:28.596Z,77.90
2018-05-01T00:16:55.739Z,79.10
2018-05-01T00:19:22.143Z,78.60
2018-05-01T00:21:48.534Z,78.80
2018-05-01T00:24:15.671Z,79.70
2018-05-01T00:26:42.813Z,80.80
2018-05-01T00:29:09.193Z,80.70
2018-05-01T00:31:35.579Z,80.30
2018-05-01T00:34:01.985Z,79.80
2018-05-01T00:36:28.392Z,80.50
2018-05-01T00:38:54.816Z,80.80
2018-05-01T00:41:21.197Z,81.30
2018-05-01T00:43:47.590Z,81.30
2018-05-01T00:46:13.998Z,81.50
2018-05-01T00:48:41.126Z,81.50
2018-05-01T00:51:08.316Z,81.70
2018-05-01T00:53:34.793Z,81.20
2018-05-01T00:56:01.188Z,81.80
2018-05-01T00:58:27.608Z,81.50
2018-05-01T01:00:54.037Z,81.70
2018-05-01T01:03:20.436Z,82.30
2018-05-01T01:05:46.847Z,80.60
2018-05-01T01:08:13.273Z,80.90
2018-05-01T01:10:39.690Z,81.10
2018-05-01T01:13:06.222Z,81.20
2018-05-01T01:15:32.676Z,81.90
2018-05-01T01:17:59.201Z,82.70
2018-05-01T01:20:25.617Z,83.80
2018-05-01T01:22:52.030Z,82.90
2018-05-01T01:25:18.704Z,82.60
2018-05-01T01:27:45.085Z,82.60
2018-05-01T01:30:12.219Z,83.50
2018-05-01T01:32:38.608Z,83.50
2018-05-01T01:35:04.791Z,83.60
2018-05-01T01:37:31.766Z,83.80
2018-05-01T01:39:57.944Z,83.80
2018-05-01T01:42:24.129Z,84.70
2018-05-01T01:44:50.317Z,84.70
2018-05-01T01:47:16.505Z,84.80
2018-05-01T01:49:42.716Z,84.30
2018-05-01T01:52:08.902Z,83.90
2018-05-01T01:54:35.088Z,83.90
2018-05-01T01:57:01.281Z,84.40
2018-05-01T01:59:27.477Z,84.70
2018-05-01T02:01:53.661Z,84.20
2018-05-01T02:04:19.835Z,84.40
2018-05-01T02:06:46.772Z,83.70
2018-05-01T02:09:12.955Z,83.20
2018-05-01T02:11:39.135Z,82.10
2018-05-01T02:14:05.307Z,81.60
2018-05-01T02:16:31.552Z,81.70
2018-05-01T02:18:57.734Z,81.30
2018-05-01T02:21:24.655Z,79.90
2018-05-01T02:23:50.902Z,79.90
2018-05-01T02:26:17.837Z,78.60
2018-05-01T02:28:44.014Z,78.60
2018-05-01T02:31:10.186Z,77.70
2018-05-01T02:33:36.362Z,77.50
2018-05-01T02:36:02.524Z,77.60
2018-05-01T02:38:28.718Z,77.50
2018-05-01T02:40:54.890Z,77.60
2018-05-01T02:43:21.063Z,77.40
2018-05-01T02:45:47.241Z,76.90
2018-05-01T02:48:13.422Z,76.70
2018-05-01T02:50:39.595Z,76.40
2018-05-01T02:53:05.770Z,76.40
2018-05-01T02:55:31.959Z,76.40
2018-05-01T02:57:58.132Z,76.50
2018-05-01T03:00:24.301Z,76.90
2018-05-01T03:02:50.517Z,76.30
2018-05-01T03:05:16.726Z,76.10
2018-05-01T03:07:42.915Z,75.30
2018-05-01T03:10:09.110Z,74.50
2018-05-01T03:12:35.300Z,74.60
2018-05-01T03:15:01.511Z,75.20
2018-05-01T03:17:27.715Z,74.60
2018-05-01T03:19:54.674Z,74.20
2018-05-01T03:22:20.924Z,74.20
2018-05-01T03:24:47.112Z,73.50
2018-05-01T03:27:14.119Z,72.70
2018-05-01T03:29:40.323Z,72.70
2018-05-01T03:32:06.522Z,72.80
2018-05-01T03:34:33.455Z,73.00
2018-05-01T03:37:00.393Z,72.30
2018-05-01T03:39:26.578Z,72.80
2018-05-01T03:41:52.767Z,72.20
2018-05-01T03:44:19.705Z,71.80
2018-05-01T03:46:46.653Z,71.00
2018-05-01T03:49:13.595Z,70.70
2018-05-01T03:51:40.534Z,70.90
2018-05-01T03:54:06.725Z,70.90
2018-05-01T03:56:32.917Z,70.70
2018-05-01T03:58:59.112Z,70.30
2018-05-01T04:01:25.288Z,70.40
2018-05-01T04:03:51.508Z,70.10
2018-05-01T04:06:17.703Z,70.00
2018-05-01T04:08:44.637Z,69.20
2018-05-01T04:11:10.830Z,69.10
2018-05-01T04:13:37.059Z,68.90
2018-05-01T04:16:03.234Z,69.10
2018-05-01T04:18:30.150Z,68.10
2018-05-01T04:20:56.335Z,68.10
2018-05-01T04:23:22.525Z,68.40
2018-05-01T04:25:50.247Z,67.60
2018-05-01T04:28:16.419Z,67.60
2018-05-01T04:30:42.667Z,67.60
2018-05-01T04:33:08.847Z,67.00
2018-05-01T04:35:35.034Z,66.40
2018-05-01T04:38:01.236Z,67.20
2018-05-01T04:40:28.146Z,64.40
2018-05-01T04:42:54.328Z,65.00
2018-05-01T04:45:20.514Z,66.40
2018-05-01T04:47:46.690Z,66.70
2018-05-01T04:50:12.872Z,67.30
2018-05-01T04:52:39.065Z,67.90
2018-05-01T04:55:05.267Z,68.40
2018-05-01T04:57:31.464Z,69.70
2018-05-01T04:59:57.653Z,68.60
2018-05-01T05:02:23.844Z,68.30
2018-05-01T05:04:50.038Z,67.70
2018-05-01T05:07:16.261Z,67.50
2018-05-01T05:09:42.629Z,67.80
2018-05-01T05:12:08.862Z,68.10
2018-05-01T05:14:35.087Z,68.10
2018-05-01T05:17:01.277Z,67.40
2018-05-01T05:19:28.949Z,67.70
2018-05-01T05:21:55.131Z,67.70
2018-05-01T05:24:21.315Z,67.50
2018-05-01T05:26:48.285Z,67.00
2018-05-01T05:29:14.510Z,67.00
2018-05-01T05:31:41.423Z,66.20
2018-05-01T05:34:08.505Z,66.00
2018-05-01T05:36:34.699Z,66.50
2018-05-01T05:39:00.876Z,65.20
2018-05-01T05:41:27.072Z,65.20
2018-05-01T05:43:54.000Z,63.90
2018-05-01T05:46:20.957Z,60.50
2018-05-01T05:48:47.900Z,60.50
2018-05-01T05:51:14.927Z,59.40
2018-05-01T05:53:41.240Z,59.40
2018-05-01T05:56:07.445Z,58.00
2018-05-01T05:58:33.623Z,56.40
2018-05-01T06:01:00.554Z,54.50
2018-05-01T06:03:26.745Z,54.00
2018-05-01T06:05:52.949Z,52.60
2018-05-01T06:08:19.880Z,51.10
2018-05-01T06:10:47.529Z,50.10
2018-05-01T06:13:14.460Z,49.20
2018-05-01T06:15:40.650Z,49.20
2018-05-01T06:18:06.841Z,50.80
2018-05-01T06:20:33.766Z,49.90
2018-05-01T06:23:00.689Z,50.50
2018-05-01T06:25:26.863Z,50.50
2018-05-01T06:27:53.795Z,49.70
2018-05-01T06:30:20.751Z,49.00
2018-05-01T06:32:47.663Z,49.50
2018-05-01T06:35:13.869Z,49.50
2018-05-01T06:37:40.149Z,49.90
2018-05-01T06:40:07.080Z,50.60
2018-05-01T06:42:34.017Z,49.80
2018-05-01T06:45:00.196Z,49.20
2018-05-01T06:47:26.386Z,48.20
2018-05-01T06:49:53.307Z,50.00
2018-05-01T06:52:19.487Z,49.30
2018-05-01T06:54:45.681Z,47.50
2018-05-01T06:57:12.670Z,49.80
2018-05-01T06:59:38.859Z,49.80
2018-05-01T07:02:05.043Z,50.00
2018-05-01T07:04:31.271Z,50.00
2018-05-01T07:06:57.470Z,49.60
2018-05-01T07:09:23.680Z,52.50
2018-05-01T07:11:50.612Z,50.90
2018-05-01T07:14:17.561Z,50.30
2018-05-01T07:16:44.500Z,50.80
2018-05-01T07:19:11.447Z,50.40
2018-05-01T07:21:37.823Z,50.40
2018-05-01T07:24:04.447Z,49.90
2018-05-01T07:26:30.686Z,50.70
2018-05-01T07:28:56.980Z,50.80
2018-05-01T07:31:24.081Z,49.30
2018-05-01T07:33:51.704Z,49.30
2018-05-01T07:36:18.560Z,48.80
2018-05-01T07:38:45.739Z,50.00
2018-05-01T07:41:14.131Z,50.80
2018-05-01T07:43:40.368Z,49.90
2018-05-01T07:46:07.359Z,49.10
2018-05-01T07:48:35.027Z,48.00
2018-05-01T07:51:02.435Z,48.00
2018-05-01T07:53:28.752Z,49.10
2018-05-01T07:55:55.055Z,48.40
2018-05-01T07:58:22.738Z,48.80
2018-05-01T08:00:48.943Z,48.00
2018-05-01T08:03:15.859Z,48.80
2018-05-01T08:05:42.959Z,49.90
2018-05-01T08:08:09.329Z,49.90
2018-05-01T08:10:36.589Z,47.40
2018-05-01T08:13:04.209Z,49.20
2018-05-01T08:15:30.591Z,49.20
2018-05-01T08:17:57.384Z,47.70
2018-05-01T08:20:25.265Z,48.90
2018-05-01T08:22:51.578Z,48.00
2018-05-01T08:25:19.419Z,49.40
2018-05-01T08:27:45.709Z,48.20
2018-05-01T08:30:14.235Z,44.60
2018-05-01T08:32:41.460Z,44.60
2018-05-01T08:35:07.699Z,44.90
2018-05-01T08:37:34.451Z,45.70
2018-05-01T08:40:01.357Z,47.10
2018-05-01T08:42:27.707Z,45.60
2018-05-01T08:44:54.099Z,46.10
2018-05-01T08:47:20.287Z,46.80
2018-05-01T08:49:47.182Z,48.20
2018-05-01T08:52:14.507Z,47.80
2018-05-01T08:54:40.808Z,49.70
2018-05-01T08:57:08.525Z,48.60
2018-05-01T08:59:36.132Z,48.30
2018-05-01T09:02:02.349Z,48.30
2018-05-01T09:04:28.608Z,48.60
2018-05-01T09:06:55.777Z,49.70
2018-05-01T09:09:22.933Z,48.20
2018-05-01T09:11:49.164Z,47.80
2018-05-01T09:14:15.386Z,46.80
2018-05-01T09:16:41.615Z,46.90
2018-05-01T09:19:07.812Z,45.20
2018-05-01T09:21:33.985Z,45.70
2018-05-01T09:24:01.698Z,46.30
2018-05-01T09:26:27.898Z,46.30
2018-05-01T09:28:54.834Z,46.40
2018-05-01T09:31:21.050Z,46.40
2018-05-01T09:33:47.300Z,46.60
2018-05-01T09:36:13.500Z,48.20
2018-05-01T09:38:39.719Z,47.80
2018-05-01T09:41:05.901Z,45.00
2018-05-01T09:43:32.104Z,46.40
2018-05-01T09:45:58.294Z,46.00
2018-05-01T09:48:24.475Z,46.60
2018-05-01T09:50:51.422Z,44.50
2018-05-01T09:53:17.951Z,44.40
2018-05-01T09:55:44.296Z,44.60
2018-05-01T09:58:10.695Z,45.80
2018-05-01T10:00:38.574Z,45.00
2018-05-01T10:03:05.775Z,43.40
2018-05-01T10:05:32.239Z,43.40
2018-05-01T10:07:58.638Z,44.50
2018-05-01T10:10:25.047Z,43.60
2018-05-01T10:12:51.462Z,44.90
2018-05-01T10:15:18.645Z,43.60
2018-05-01T10:17:45.059Z,43.60
2018-05-01T10:20:12.219Z,43.80
2018-05-01T10:22:38.615Z,43.90
2018-05-01T10:25:05.075Z,46.00
2018-05-01T10:27:31.527Z,44.40
2018-05-01T10:29:57.939Z,43.00
2018-05-01T10:32:25.075Z,44.10
2018-05-01T10:34:52.195Z,44.10
2018-05-01T10:37:18.580Z,44.10
2018-05-01T10:39:45.702Z,41.80
2018-05-01T10:42:13.584Z,42.40
2018-05-01T10:44:40.722Z,42.20
2018-05-01T10:47:07.110Z,42.30
2018-05-01T10:49:33.505Z,43.20
2018-05-01T10:51:59.891Z,42.30
2018-05-01T10:54:26.286Z,40.90
2018-05-01T10:56:52.676Z,42.50
2018-05-01T10:59:20.550Z,42.90
2018-05-01T11:01:46.963Z,43.00
2018-05-01T11:04:13.374Z,42.60
2018-05-01T11:06:39.779Z,43.30
2018-05-01T11:09:06.198Z,43.90
2018-05-01T11:11:33.330Z,43.50
2018-05-01T11:14:00.462Z,43.90
2018-05-01T11:16:26.863Z,43.90
2018-05-01T11:18:53.255Z,43.70
2018-05-01T11:21:20.388Z,43.30
2018-05-01T11:23:47.530Z,43.00
2018-05-01T11:26:13.967Z,43.00
2018-05-01T11:28:40.345Z,42.90
2018-05-01T11:31:06.728Z,42.90
2018-05-01T11:33:33.134Z,42.60
2018-05-01T11:36:01.043Z,43.50
2018-05-01T11:38:28.944Z,43.80
2018-05-01T11:40:55.328Z,43.70
2018-05-01T11:43:21.733Z,43.00
2018-05-01T11:45:48.139Z,44.30
2018-05-01T11:48:14.589Z,45.40
2018-05-01T11:50:41.008Z,45.50
2018-05-01T11:53:07.392Z,42.20
2018-05-01T11:55:33.795Z,41.90
2018-05-01T11:58:00.202Z,42.80
2018-05-01T12:00:26.598Z,43.00
2018-05-01T12:02:52.979Z,42.50
2018-05-01T12:05:19.366Z,43.00
2018-05-01T12:07:45.948Z,41.90
2018-05-01T12:10:13.104Z,43.50
2018-05-01T12:12:39.559Z,43.50
2018-05-01T12:15:06.726Z,42.70
2018-05-01T12:17:33.112Z,42.80
2018-05-01T12:19:59.507Z,42.70
2018-05-01T12:22:25.888Z,44.00
2018-05-01T12:24:52.270Z,43.40
2018-05-01T12:27:19.402Z,44.80
2018-05-01T12:29:45.794Z,44.80
2018-05-01T12:32:12.186Z,43.40
2018-05-01T12:34:38.576Z,44.40
2018-05-01T12:37:05.003Z,42.90
2018-05-01T12:39:31.574Z,43.80
2018-05-01T12:41:58.020Z,43.10
2018-05-01T12:44:25.271Z,43.00
2018-05-01T12:46:52.472Z,43.70
2018-05-01T12:49:18.921Z,43.70
2018-05-01T12:51:45.364Z,43.80
2018-05-01T12:54:11.799Z,44.20
2018-05-01T12:56:38.221Z,43.60
2018-05-01T12:59:04.750Z,43.10
2018-05-01T13:01:31.121Z,44.20
2018-05-01T13:03:58.294Z,44.00
2018-05-01T13:06:24.726Z,43.40
2018-05-01T13:08:51.960Z,43.70
2018-05-01T13:11:19.151Z,45.50
2018-05-01T13:13:45.594Z,45.50
2018-05-01T13:16:12.155Z,42.30
2018-05-01T13:18:38.556Z,43.20
2018-05-01T13:21:04.966Z,45.40
2018-05-01T13:23:31.363Z,45.30
2018-05-01T13:25:57.767Z,42.50
2018-05-01T13:28:24.163Z,42.10
2018-05-01T13:30:51.298Z,44.10
2018-05-01T13:33:17.697Z,44.10
2018-05-01T13:46:17.122Z,42.40
